Time;durP1;ratioP1;P1;durP2;ratioP2;P2;SDS_P1;SDS_P2;PMS_P1;PMS_P2;Temp;Humidity;BMP_temperature;BMP_pressure;BME280_temperature;BME280_humidity;BME280_pressure;Samples;Min_cycle;Max_cycle;Signal;HPM_P1;HPM_P2
2022/10/28 00:00:05;;;;;;;27.52;15.07;;;14.30;99.90;;;;;;4965606;28;38538;-85
2022/10/28 00:02:31;;;;;;;23.98;15.30;;;14.30;99.90;;;;;;4965552;28;37195;-87
2022/10/28 00:04:58;;;;;;;26.85;15.15;;;14.20;99.90;;;;;;4985216;28;37147;-84
2022/10/28 00:07:24;;;;;;;28.08;15.75;;;14.20;99.90;;;;;;4964987;28;37828;-86
2022/10/28 00:09:50;;;;;;;23.33;14.43;;;14.20;99.90;;;;;;4966180;28;35468;-85
2022/10/28 00:12:16;;;;;;;20.42;12.98;;;14.20;99.90;;;;;;4963781;28;38104;-86
2022/10/28 00:14:42;;;;;;;30.13;15.23;;;14.10;99.90;;;;;;4961723;28;36389;-85
2022/10/28 00:17:08;;;;;;;24.23;13.20;;;14.10;99.90;;;;;;4976026;28;39398;-86
2022/10/28 00:19:34;;;;;;;25.95;14.07;;;14.00;99.90;;;;;;4980157;28;38933;-87
2022/10/28 00:22:01;;;;;;;26.83;12.43;;;14.00;99.90;;;;;;4967044;28;37176;-88
2022/10/28 00:24:27;;;;;;;26.95;13.43;;;14.10;99.90;;;;;;4965330;28;38344;-88
2022/10/28 00:26:53;;;;;;;20.08;13.43;;;14.10;99.90;;;;;;4968359;28;39436;-88
2022/10/28 00:29:19;;;;;;;22.77;11.95;;;14.30;99.90;;;;;;4964941;28;37752;-85
2022/10/28 00:31:46;;;;;;;25.25;14.90;;;14.40;99.90;;;;;;4963809;28;39265;-90
2022/10/28 00:34:15;;;;;;;32.45;15.80;;;14.50;99.90;;;;;;4978839;28;37661;-87
2022/10/28 00:36:43;;;;;;;23.88;13.27;;;14.50;99.90;;;;;;4961243;28;38596;-87
2022/10/28 00:39:12;;;;;;;23.98;14.57;;;14.60;99.90;;;;;;4956009;28;39263;-85
2022/10/28 00:41:42;;;;;;;33.45;16.25;;;14.60;99.90;;;;;;4965796;28;40744;-86
2022/10/28 00:44:47;;;;;;;30.38;16.10;;;14.60;99.90;;;;;;4982245;28;37434;-87
2022/10/28 00:47:28;;;;;;;32.35;15.52;;;14.50;99.90;;;;;;4964091;28;37853;-85
2022/10/28 00:49:59;;;;;;;34.40;17.02;;;14.50;99.90;;;;;;4980894;28;39116;-86
2022/10/28 00:52:28;;;;;;;26.77;15.70;;;14.50;99.90;;;;;;4964409;28;36986;-86
2022/10/28 00:54:55;;;;;;;30.17;18.10;;;14.40;99.90;;;;;;4973731;28;37429;-87
2022/10/28 00:57:28;;;;;;;29.75;15.88;;;14.40;99.90;;;;;;4984769;28;38548;-85
2022/10/28 00:59:55;;;;;;;30.05;14.40;;;14.40;99.90;;;;;;4966845;28;41070;-84
2022/10/28 01:02:21;;;;;;;29.95;17.10;;;14.30;99.90;;;;;;5304469;23;38602;-77
2022/10/28 01:04:48;;;;;;;19.13;13.95;;;14.30;99.90;;;;;;4959711;28;39217;-79
2022/10/28 01:07:15;;;;;;;19.33;12.45;;;14.30;99.90;;;;;;4933872;28;37874;-80
2022/10/28 01:09:42;;;;;;;32.88;17.85;;;14.40;99.90;;;;;;4964315;28;38363;-78
2022/10/28 01:12:08;;;;;;;29.30;17.25;;;14.60;99.90;;;;;;4951225;28;37255;-79
2022/10/28 01:14:56;;;;;;;28.33;17.13;;;14.60;99.90;;;;;;4960635;28;37049;-77
2022/10/28 01:17:34;;;;;;;24.63;14.52;;;14.60;99.90;;;;;;4963900;28;38840;-81
2022/10/28 01:20:37;;;;;;;31.23;15.52;;;14.60;99.90;;;;;;4961266;28;37985;-76
2022/10/28 01:23:25;;;;;;;27.73;17.75;;;14.60;99.90;;;;;;4960274;28;48041;-77
2022/10/28 01:26:23;;;;;;;28.30;15.05;;;14.60;99.90;;;;;;4961310;28;38765;-76
2022/10/28 01:28:56;;;;;;;22.80;13.80;;;14.50;99.90;;;;;;4942275;28;46830;-76
2022/10/28 01:31:28;;;;;;;25.67;13.40;;;14.50;99.90;;;;;;4958389;28;36154;-77
2022/10/28 01:34:07;;;;;;;21.67;11.73;;;14.50;99.90;;;;;;4959679;28;38444;-78
2022/10/28 01:37:00;;;;;;;22.60;13.63;;;14.50;99.90;;;;;;4956508;28;48517;-77
2022/10/28 01:39:56;;;;;;;25.50;14.77;;;14.50;99.90;;;;;;4964563;28;39667;-79
2022/10/28 01:42:39;;;;;;;27.25;14.85;;;14.50;99.90;;;;;;4936455;28;38997;-77
2022/10/28 01:45:18;;;;;;;29.63;16.35;;;14.50;99.90;;;;;;4964582;28;38273;-76
2022/10/28 01:47:51;;;;;;;29.70;17.63;;;14.30;99.90;;;;;;4961141;28;37156;-78
2022/10/28 01:50:23;;;;;;;25.88;14.80;;;14.30;99.90;;;;;;4950025;28;38095;-80
2022/10/28 01:52:54;;;;;;;23.50;14.45;;;14.20;99.90;;;;;;4940859;28;38686;-77
2022/10/28 01:55:44;;;;;;;43.47;17.38;;;14.10;99.90;;;;;;4958559;28;37771;-77
2022/10/28 01:58:16;;;;;;;28.60;14.57;;;14.10;99.90;;;;;;4948391;28;37789;-78
2022/10/28 02:00:44;;;;;;;20.90;11.55;;;14.10;99.90;;;;;;4937997;28;39400;-76
2022/10/28 02:03:10;;;;;;;24.40;15.60;;;14.10;99.90;;;;;;4951497;28;38771;-77
2022/10/28 02:05:52;;;;;;;30.40;14.70;;;14.20;99.90;;;;;;4964988;28;38574;-77
2022/10/28 02:08:19;;;;;;;23.75;13.02;;;14.20;99.90;;;;;;4955694;28;38870;-78
2022/10/28 02:11:01;;;;;;;27.35;14.05;;;14.30;99.90;;;;;;4936354;28;39272;-78
2022/10/28 02:13:53;;;;;;;22.67;12.40;;;14.40;99.90;;;;;;4950092;28;39454;-77
2022/10/28 02:16:56;;;;;;;35.22;18.48;;;14.40;99.90;;;;;;4960662;28;37241;-79
2022/10/28 02:20:02;;;;;;;19.20;12.00;;;14.30;99.90;;;;;;4972379;28;37550;-76
2022/10/28 02:22:34;;;;;;;23.00;14.60;;;14.20;99.90;;;;;;4969563;28;38055;-78
2022/10/28 02:25:19;;;;;;;28.92;15.93;;;14.10;99.90;;;;;;4972250;28;37584;-77
2022/10/28 02:27:57;;;;;;;28.00;15.10;;;14.00;99.90;;;;;;4964485;28;47993;-79
2022/10/28 02:30:44;;;;;;;24.35;14.88;;;14.00;99.90;;;;;;4949866;28;37725;-77
2022/10/28 02:33:16;;;;;;;27.23;14.57;;;14.00;99.90;;;;;;4963341;28;40500;-78
2022/10/28 02:36:09;;;;;;;27.27;15.48;;;13.90;99.90;;;;;;4970163;28;39019;-79
2022/10/28 02:38:41;;;;;;;20.73;12.50;;;13.80;99.90;;;;;;4941026;28;47128;-78
2022/10/28 02:41:22;;;;;;;20.35;13.73;;;13.80;99.90;;;;;;4963448;28;37696;-78
2022/10/28 02:43:55;;;;;;;23.15;12.70;;;13.80;99.90;;;;;;4963744;28;38157;-76
2022/10/28 02:46:27;;;;;;;28.02;14.02;;;13.70;99.90;;;;;;4967901;28;38996;-78
2022/10/28 02:48:57;;;;;;;23.02;12.95;;;13.60;99.90;;;;;;4965279;28;38151;-78
2022/10/28 02:51:45;;;;;;;28.63;14.57;;;13.60;99.90;;;;;;4965016;28;37257;-79
2022/10/28 02:54:14;;;;;;;25.70;12.43;;;13.60;99.90;;;;;;4947988;28;37480;-76
2022/10/28 02:57:09;;;;;;;26.08;14.38;;;13.70;99.90;;;;;;4964881;28;39799;-78
2022/10/28 02:59:35;;;;;;;31.02;13.00;;;13.80;99.90;;;;;;4962865;28;48804;-78
2022/10/28 03:02:02;;;;;;;22.33;12.68;;;14.00;99.90;;;;;;4955654;28;36943;-80
2022/10/28 03:04:28;;;;;;;20.83;10.82;;;14.10;99.90;;;;;;4970487;28;48744;-76
2022/10/28 03:06:57;;;;;;;22.73;13.00;;;14.20;99.90;;;;;;4969917;28;40357;-78
2022/10/28 03:09:23;;;;;;;22.67;11.77;;;14.30;99.90;;;;;;4970773;28;38415;-80
2022/10/28 03:11:49;;;;;;;21.60;10.93;;;14.30;99.90;;;;;;4969843;28;37531;-78
2022/10/28 03:14:16;;;;;;;19.92;11.75;;;14.40;99.90;;;;;;4967104;28;38866;-84
2022/10/28 03:16:42;;;;;;;22.77;10.85;;;14.50;99.90;;;;;;4950123;28;38664;-78
2022/10/28 03:19:08;;;;;;;15.98;10.68;;;14.50;99.90;;;;;;4959219;28;37566;-80
2022/10/28 03:21:34;;;;;;;23.05;11.07;;;14.60;99.90;;;;;;4951635;28;36634;-81
2022/10/28 03:24:00;;;;;;;22.08;9.77;;;14.60;99.90;;;;;;4959253;28;39006;-81
2022/10/28 03:26:26;;;;;;;15.93;10.05;;;14.70;99.90;;;;;;4967179;28;38949;-79
2022/10/28 03:28:52;;;;;;;21.40;11.15;;;14.60;99.90;;;;;;4961372;28;38682;-78
2022/10/28 03:31:19;;;;;;;19.50;10.35;;;14.60;99.90;;;;;;4946417;28;36800;-77
2022/10/28 03:33:45;;;;;;;19.23;10.63;;;14.70;99.90;;;;;;4969774;28;37450;-77
2022/10/28 03:36:11;;;;;;;23.67;10.75;;;14.70;99.90;;;;;;4968687;28;38882;-79
2022/10/28 03:38:37;;;;;;;21.58;10.63;;;14.70;99.90;;;;;;4964940;28;38565;-79
2022/10/28 03:41:03;;;;;;;17.15;10.85;;;14.80;99.90;;;;;;4968442;28;37055;-78
2022/10/28 03:43:29;;;;;;;19.15;10.80;;;14.70;99.90;;;;;;4970831;28;37089;-82
2022/10/28 03:45:55;;;;;;;19.95;10.13;;;14.70;99.90;;;;;;4972275;28;39117;-78
2022/10/28 03:48:21;;;;;;;21.67;11.40;;;14.70;99.90;;;;;;4950315;28;37731;-78
2022/10/28 03:50:52;;;;;;;26.40;12.60;;;14.70;99.90;;;;;;4958492;28;36724;-79
2022/10/28 03:53:18;;;;;;;30.38;12.52;;;14.50;99.90;;;;;;4959467;28;38002;-77
2022/10/28 03:55:51;;;;;;;18.63;10.20;;;14.40;99.90;;;;;;4949458;28;40239;-77
2022/10/28 03:58:18;;;;;;;18.85;11.27;;;14.40;99.90;;;;;;4949875;28;37365;-78
2022/10/28 04:00:46;;;;;;;21.55;9.23;;;14.40;99.90;;;;;;4968251;28;37493;-81
2022/10/28 04:03:12;;;;;;;17.02;9.07;;;14.40;99.90;;;;;;4947513;28;38711;-80
2022/10/28 04:05:38;;;;;;;28.92;12.30;;;14.40;99.90;;;;;;4950178;28;39966;-79
2022/10/28 04:08:04;;;;;;;19.48;10.27;;;14.30;99.90;;;;;;4967205;28;39550;-77
2022/10/28 04:10:30;;;;;;;19.95;9.25;;;14.30;99.90;;;;;;4973796;28;37040;-78
2022/10/28 04:13:00;;;;;;;27.02;12.23;;;14.40;99.90;;;;;;4946587;28;37811;-78
2022/10/28 04:15:26;;;;;;;18.98;9.55;;;14.40;99.90;;;;;;4975397;28;38633;-78
2022/10/28 04:17:52;;;;;;;23.88;10.18;;;14.40;99.90;;;;;;4972091;28;38400;-77
2022/10/28 04:20:19;;;;;;;21.58;10.18;;;14.50;99.90;;;;;;4944456;28;36691;-78
2022/10/28 04:22:45;;;;;;;19.50;11.27;;;14.50;99.90;;;;;;4963052;28;38430;-77
2022/10/28 04:25:11;;;;;;;18.00;10.27;;;14.40;99.90;;;;;;4971547;28;39627;-79
2022/10/28 04:27:37;;;;;;;23.05;11.05;;;14.40;99.90;;;;;;4969811;28;38645;-81
2022/10/28 04:30:05;;;;;;;17.67;9.90;;;14.30;99.90;;;;;;4969332;28;37702;-78
2022/10/28 04:32:31;;;;;;;19.77;10.68;;;14.30;99.90;;;;;;4947768;28;37953;-79
2022/10/28 04:34:57;;;;;;;19.88;11.45;;;14.20;99.90;;;;;;4965332;28;38278;-77
2022/10/28 04:37:23;;;;;;;22.77;10.73;;;14.20;99.90;;;;;;4966105;28;38932;-78
2022/10/28 04:39:49;;;;;;;19.73;11.15;;;14.10;99.90;;;;;;4961949;28;38126;-78
2022/10/28 04:42:15;;;;;;;28.17;12.15;;;14.10;99.90;;;;;;4951932;28;37550;-80
2022/10/28 04:44:41;;;;;;;21.67;9.93;;;14.00;99.90;;;;;;4954611;28;39203;-77
2022/10/28 04:47:07;;;;;;;25.83;12.45;;;13.90;99.90;;;;;;4969604;28;39432;-78
2022/10/28 04:49:33;;;;;;;21.88;10.85;;;13.90;99.90;;;;;;4937719;28;36168;-79
2022/10/28 04:52:00;;;;;;;24.80;9.93;;;13.80;99.90;;;;;;4956804;28;38644;-76
2022/10/28 04:54:26;;;;;;;31.13;11.20;;;13.70;99.90;;;;;;4948699;28;38722;-78
2022/10/28 04:56:53;;;;;;;25.45;11.50;;;13.80;99.90;;;;;;4967772;28;39108;-76
2022/10/28 04:59:20;;;;;;;20.00;11.10;;;13.90;99.90;;;;;;4964669;28;36948;-82
2022/10/28 05:01:46;;;;;;;24.80;11.82;;;13.90;99.90;;;;;;4952925;28;39804;-80
2022/10/28 05:04:12;;;;;;;20.92;9.27;;;13.90;99.90;;;;;;4967447;28;37498;-80
2022/10/28 05:06:38;;;;;;;18.63;9.93;;;14.00;99.90;;;;;;4971513;28;37090;-78
2022/10/28 05:09:05;;;;;;;15.93;8.68;;;14.00;99.90;;;;;;4973254;28;37629;-79
2022/10/28 05:11:31;;;;;;;17.67;9.85;;;14.10;99.90;;;;;;4979349;28;39070;-79
2022/10/28 05:13:57;;;;;;;23.90;9.98;;;14.10;99.90;;;;;;4962526;28;39769;-78
2022/10/28 05:16:23;;;;;;;21.38;10.82;;;14.20;99.90;;;;;;4958333;28;37583;-78
2022/10/28 05:18:49;;;;;;;25.73;11.52;;;14.10;99.90;;;;;;4942858;28;37247;-77
2022/10/28 05:21:16;;;;;;;17.20;10.18;;;14.10;99.90;;;;;;4934452;28;39138;-78
2022/10/28 05:23:42;;;;;;;20.80;9.75;;;14.20;99.90;;;;;;4939898;28;38228;-83
2022/10/28 05:26:08;;;;;;;17.33;8.93;;;14.20;99.90;;;;;;4942412;28;37549;-80
2022/10/28 05:28:34;;;;;;;15.38;9.52;;;14.20;99.90;;;;;;4948016;28;37409;-81
2022/10/28 05:31:00;;;;;;;24.77;12.23;;;14.20;99.90;;;;;;4950567;28;38534;-85
2022/10/28 05:33:26;;;;;;;17.23;10.38;;;14.10;99.90;;;;;;4959687;28;38478;-77
2022/10/28 05:35:52;;;;;;;18.58;9.75;;;14.00;99.90;;;;;;4956680;28;39492;-77
2022/10/28 05:38:18;;;;;;;18.75;10.80;;;13.90;99.90;;;;;;4959505;28;35667;-80
2022/10/28 05:40:44;;;;;;;22.77;11.48;;;13.80;99.90;;;;;;4959289;28;38163;-77
2022/10/28 05:43:11;;;;;;;27.88;12.05;;;13.70;99.90;;;;;;4960741;28;39745;-81
2022/10/28 05:45:37;;;;;;;21.40;9.82;;;13.70;99.90;;;;;;4962534;28;38141;-84
2022/10/28 05:48:03;;;;;;;20.15;11.27;;;13.60;99.90;;;;;;4971211;28;37357;-81
2022/10/28 05:50:29;;;;;;;25.05;12.55;;;13.60;99.90;;;;;;4968140;28;37996;-82
2022/10/28 05:52:56;;;;;;;21.85;11.57;;;13.50;99.90;;;;;;4958434;28;38069;-85
2022/10/28 05:55:27;;;;;;;22.63;13.00;;;13.40;99.90;;;;;;4946491;28;37117;-80
2022/10/28 05:57:54;;;;;;;18.23;11.80;;;13.30;99.90;;;;;;4964985;28;37652;-80
2022/10/28 06:00:23;;;;;;;20.63;11.85;;;13.20;99.90;;;;;;4949497;28;37942;-82
2022/10/28 06:02:49;;;;;;;22.58;11.25;;;13.20;99.90;;;;;;4961810;28;37619;-81
2022/10/28 06:05:16;;;;;;;18.73;11.10;;;13.10;99.90;;;;;;4970276;28;38172;-80
2022/10/28 06:07:42;;;;;;;23.30;11.95;;;13.10;99.90;;;;;;4959116;28;37449;-81
2022/10/28 06:10:09;;;;;;;23.80;12.90;;;13.20;99.90;;;;;;4965837;28;38883;-82
2022/10/28 06:12:36;;;;;;;25.10;13.05;;;13.20;99.90;;;;;;4950039;28;39222;-81
2022/10/28 06:15:02;;;;;;;21.90;9.05;;;13.20;99.90;;;;;;4967358;28;36826;-83
2022/10/28 06:17:29;;;;;;;20.50;8.90;;;13.30;99.90;;;;;;4964836;28;38339;-78
2022/10/28 06:19:55;;;;;;;18.38;10.30;;;13.40;99.90;;;;;;4966133;28;39785;-80
2022/10/28 06:22:22;;;;;;;29.88;13.93;;;13.50;99.90;;;;;;4949786;28;38009;-81
2022/10/28 06:24:48;;;;;;;25.85;13.32;;;13.40;99.90;;;;;;4966940;28;39268;-82
2022/10/28 06:27:14;;;;;;;24.50;10.52;;;13.40;99.90;;;;;;4950390;28;37289;-82
2022/10/28 06:29:40;;;;;;;19.27;10.20;;;13.40;99.90;;;;;;4944229;28;39002;-79
2022/10/28 06:32:08;;;;;;;27.55;12.57;;;13.40;99.90;;;;;;4940636;28;37671;-81
2022/10/28 06:34:35;;;;;;;28.65;13.20;;;13.50;99.90;;;;;;4947943;28;38802;-81
2022/10/28 06:37:01;;;;;;;24.83;12.23;;;13.60;99.90;;;;;;4947506;28;36378;-83
2022/10/28 06:39:27;;;;;;;33.80;12.40;;;13.60;99.90;;;;;;4962870;28;38843;-84
2022/10/28 06:41:53;;;;;;;27.13;12.32;;;13.60;99.90;;;;;;4959370;28;37735;-79
2022/10/28 06:44:19;;;;;;;26.80;12.90;;;13.60;99.90;;;;;;4958971;28;38017;-79
2022/10/28 06:46:45;;;;;;;20.42;11.27;;;13.50;99.90;;;;;;4950083;28;37381;-83
2022/10/28 06:49:11;;;;;;;22.08;11.52;;;13.50;99.90;;;;;;4940229;28;39064;-78
2022/10/28 06:51:37;;;;;;;21.98;11.85;;;13.60;99.90;;;;;;4949026;28;37831;-82
2022/10/28 06:54:03;;;;;;;23.05;10.57;;;13.70;99.90;;;;;;4962006;28;38206;-84
2022/10/28 06:56:29;;;;;;;20.63;10.13;;;13.80;99.90;;;;;;4963011;28;36782;-80
2022/10/28 06:58:55;;;;;;;25.92;11.05;;;13.90;99.90;;;;;;4950467;28;38314;-82
2022/10/28 07:01:22;;;;;;;21.63;10.13;;;14.00;99.90;;;;;;4959672;28;37918;-83
2022/10/28 07:03:48;;;;;;;24.15;10.35;;;14.10;99.90;;;;;;4946487;28;36786;-85
2022/10/28 07:06:15;;;;;;;19.60;9.88;;;14.10;99.90;;;;;;4964027;28;38203;-84
2022/10/28 07:08:41;;;;;;;21.75;10.50;;;14.30;99.90;;;;;;4947296;28;37572;-83
2022/10/28 07:11:07;;;;;;;24.48;9.88;;;14.30;99.90;;;;;;4935220;28;38782;-83
2022/10/28 07:13:33;;;;;;;16.38;10.30;;;14.30;99.90;;;;;;4958639;28;38722;-80
2022/10/28 07:16:00;;;;;;;21.25;8.88;;;14.40;99.90;;;;;;4960432;28;37428;-84
2022/10/28 07:18:28;;;;;;;28.10;10.80;;;14.50;99.90;;;;;;4944360;28;40037;-83
2022/10/28 07:20:58;;;;;;;22.25;11.23;;;14.60;99.90;;;;;;4940130;28;37764;-81
2022/10/28 07:23:25;;;;;;;19.08;9.25;;;14.60;99.90;;;;;;4959216;28;39645;-82
2022/10/28 07:25:54;;;;;;;16.00;9.23;;;14.60;99.90;;;;;;4957933;28;38226;-85
2022/10/28 07:28:22;;;;;;;21.98;8.48;;;14.70;99.90;;;;;;4956779;28;38453;-86
2022/10/28 07:30:49;;;;;;;26.80;9.93;;;14.70;99.90;;;;;;4956799;28;37485;-85
2022/10/28 07:33:15;;;;;;;16.60;9.07;;;14.80;99.90;;;;;;4941403;28;38341;-85
2022/10/28 07:35:41;;;;;;;20.50;8.75;;;14.90;99.90;;;;;;4955393;28;39092;-85
2022/10/28 07:38:08;;;;;;;14.13;7.93;;;15.00;99.90;;;;;;4941490;28;39096;-85
2022/10/28 07:40:37;;;;;;;21.08;8.93;;;15.00;99.90;;;;;;4938500;28;38900;-82
2022/10/28 07:43:03;;;;;;;21.60;8.73;;;15.10;99.90;;;;;;4944190;28;37412;-83
2022/10/28 07:45:29;;;;;;;18.77;8.88;;;15.00;99.90;;;;;;4963844;28;38492;-83
2022/10/28 07:47:55;;;;;;;18.60;9.07;;;15.10;99.90;;;;;;4950006;28;39072;-82
2022/10/28 07:50:21;;;;;;;25.63;8.77;;;15.10;99.90;;;;;;4964190;28;39976;-85
2022/10/28 07:52:47;;;;;;;20.40;9.40;;;15.20;99.90;;;;;;4945137;28;36990;-85
2022/10/28 07:55:13;;;;;;;20.27;9.52;;;15.20;99.90;;;;;;4957908;28;37296;-79
2022/10/28 07:57:40;;;;;;;17.05;8.32;;;15.20;99.90;;;;;;4959486;28;38943;-79
2022/10/28 08:00:06;;;;;;;24.80;9.80;;;15.30;99.90;;;;;;4945238;28;37669;-79
2022/10/28 08:02:32;;;;;;;23.75;10.00;;;15.30;99.90;;;;;;4941001;28;38320;-78
2022/10/28 08:05:00;;;;;;;17.63;8.15;;;15.30;99.90;;;;;;4967550;28;37131;-79
2022/10/28 08:07:27;;;;;;;23.50;8.90;;;15.40;99.90;;;;;;4959509;28;36922;-76
2022/10/28 08:09:53;;;;;;;19.67;8.63;;;15.50;99.90;;;;;;4964727;28;39230;-76
2022/10/28 08:12:19;;;;;;;14.98;7.97;;;15.50;99.90;;;;;;4966525;28;38605;-77
2022/10/28 08:14:45;;;;;;;20.65;9.15;;;15.60;99.90;;;;;;4963496;28;35758;-76
2022/10/28 08:17:11;;;;;;;15.32;7.95;;;15.60;99.90;;;;;;4971511;28;40036;-77
2022/10/28 08:19:37;;;;;;;22.92;8.63;;;15.70;99.90;;;;;;4952260;28;37939;-78
2022/10/28 08:22:03;;;;;;;20.40;7.65;;;15.80;99.90;;;;;;4963696;28;37527;-77
2022/10/28 08:24:29;;;;;;;12.05;8.25;;;15.80;99.90;;;;;;4949978;28;37122;-77
2022/10/28 08:26:55;;;;;;;17.45;8.75;;;15.80;99.90;;;;;;4969939;28;38715;-78
2022/10/28 08:29:21;;;;;;;17.85;8.35;;;15.90;99.90;;;;;;4975664;28;39039;-77
2022/10/28 08:31:47;;;;;;;18.00;7.85;;;15.90;99.90;;;;;;4974357;28;37430;-77
2022/10/28 08:34:13;;;;;;;13.98;7.97;;;16.00;99.90;;;;;;4971881;28;37181;-77
2022/10/28 08:36:39;;;;;;;15.95;7.95;;;16.10;99.90;;;;;;4952911;28;39064;-78
2022/10/28 08:39:06;;;;;;;18.13;8.48;;;16.10;99.90;;;;;;4966859;28;37553;-78
2022/10/28 08:41:51;;;;;;;16.17;8.07;;;16.10;99.90;;;;;;4948873;28;38820;-78
2022/10/28 08:44:42;;;;;;;16.60;7.50;;;16.10;99.90;;;;;;4964033;28;36884;-78
2022/10/28 08:47:07;;;;;;;24.38;8.00;;;16.10;99.90;;;;;;4967460;28;38384;-78
2022/10/28 08:49:38;;;;;;;21.48;10.10;;;16.00;99.90;;;;;;4966269;28;38579;-78
2022/10/28 08:52:22;;;;;;;19.08;7.65;;;16.00;99.90;;;;;;4966605;28;38423;-78
2022/10/28 08:54:53;;;;;;;18.70;8.05;;;16.10;99.90;;;;;;4967955;28;36889;-76
2022/10/28 08:57:28;;;;;;;25.50;8.65;;;16.10;99.90;;;;;;4971063;28;38656;-77
2022/10/28 08:59:55;;;;;;;15.13;7.53;;;16.20;99.90;;;;;;4951540;28;39533;-80
2022/10/28 09:02:24;;;;;;;19.48;7.97;;;16.30;99.90;;;;;;4952268;28;37577;-78
2022/10/28 09:05:24;;;;;;;17.02;7.72;;;16.30;99.90;;;;;;4953554;28;36329;-77
2022/10/28 09:07:51;;;;;;;21.98;8.15;;;16.40;99.90;;;;;;4914392;28;47026;-78
2022/10/28 09:10:32;;;;;;;23.50;8.65;;;16.60;99.90;;;;;;4949248;28;37586;-79
2022/10/28 09:13:14;;;;;;;18.40;7.20;;;16.60;99.90;;;;;;4958819;28;38681;-77
2022/10/28 09:15:53;;;;;;;17.60;7.72;;;16.80;99.90;;;;;;4968628;28;48138;-77
2022/10/28 09:18:28;;;;;;;20.50;8.02;;;17.00;99.90;;;;;;4959122;28;38147;-80
2022/10/28 09:20:57;;;;;;;18.30;7.03;;;17.10;99.90;;;;;;4962590;28;39782;-81
2022/10/28 09:23:31;;;;;;;20.35;7.65;;;17.20;99.90;;;;;;4969644;28;38358;-79
2022/10/28 09:26:35;;;;;;;19.92;7.63;;;17.30;99.90;;;;;;4970749;28;36105;-79
2022/10/28 09:29:19;;;;;;;18.15;7.03;;;17.40;99.90;;;;;;4957463;28;48529;-77
2022/10/28 09:31:50;;;;;;;27.80;7.70;;;17.60;99.90;;;;;;4966459;28;47167;-77
2022/10/28 09:34:31;;;;;;;20.38;7.47;;;17.70;99.90;;;;;;4952600;28;38549;-83
2022/10/28 09:37:05;;;;;;;16.50;6.38;;;17.80;99.90;;;;;;4953568;28;37951;-85
2022/10/28 09:39:40;;;;;;;16.27;6.30;;;17.90;99.90;;;;;;4960131;28;46888;-79
2022/10/28 09:42:17;;;;;;;17.35;7.07;;;18.00;99.90;;;;;;4962486;28;39379;-79
2022/10/28 09:44:59;;;;;;;16.80;7.00;;;18.10;99.90;;;;;;4970601;28;38332;-79
2022/10/28 09:47:40;;;;;;;22.10;7.40;;;18.20;99.90;;;;;;4967570;28;36970;-79
2022/10/28 09:50:17;;;;;;;14.77;6.45;;;18.30;99.90;;;;;;4948274;28;37658;-79
2022/10/28 09:53:22;;;;;;;28.05;6.35;;;18.40;99.90;;;;;;4953494;28;38060;-80
2022/10/28 09:55:49;;;;;;;14.18;6.53;;;18.50;99.90;;;;;;4936029;28;47016;-80
2022/10/28 09:58:17;;;;;;;15.90;5.88;;;18.70;99.90;;;;;;4953333;28;36175;-79
2022/10/28 10:00:44;;;;;;;13.10;6.15;;;18.80;99.90;;;;;;4969619;28;38836;-79
2022/10/28 10:03:10;;;;;;;19.50;6.00;;;18.90;99.90;;;;;;4957240;28;37655;-81
2022/10/28 10:05:43;;;;;;;14.75;5.28;;;18.90;99.90;;;;;;4966161;28;38085;-80
2022/10/28 10:08:16;;;;;;;13.32;5.18;;;19.10;99.90;;;;;;4953437;28;36479;-79
2022/10/28 10:11:24;;;;;;;18.83;5.78;;;19.10;99.90;;;;;;4968372;28;38843;-82
2022/10/28 10:13:51;;;;;;;21.67;6.75;;;19.20;99.90;;;;;;4951104;28;48607;-81
2022/10/28 10:16:29;;;;;;;16.67;5.20;;;19.30;99.90;;;;;;4969659;28;38291;-81
2022/10/28 10:18:58;;;;;;;22.48;7.30;;;19.40;99.90;;;;;;4948262;28;38337;-80
2022/10/28 10:21:42;;;;;;;19.25;5.70;;;19.40;99.90;;;;;;4970224;28;40344;-80
2022/10/28 10:24:30;;;;;;;16.35;5.60;;;19.50;99.90;;;;;;4965650;28;39731;-78
2022/10/28 10:27:09;;;;;;;18.38;5.35;;;19.50;99.90;;;;;;4968335;28;37280;-82
2022/10/28 10:29:42;;;;;;;18.38;5.60;;;19.60;99.90;;;;;;4966314;28;49575;-80
2022/10/28 10:32:18;;;;;;;18.77;5.18;;;19.80;99.90;;;;;;4943804;28;37856;-78
2022/10/28 10:35:14;;;;;;;14.88;5.22;;;19.90;99.90;;;;;;4963480;28;38182;-79
2022/10/28 10:37:44;;;;;;;19.17;4.43;;;20.00;99.90;;;;;;4957515;28;47259;-85
2022/10/28 10:40:30;;;;;;;14.57;4.63;;;20.10;99.90;;;;;;4942140;28;36377;-84
2022/10/28 10:43:19;;;;;;;18.27;4.38;;;20.10;99.90;;;;;;4958238;28;39675;-82
2022/10/28 10:45:57;;;;;;;21.30;5.20;;;20.20;99.90;;;;;;4969096;28;48617;-82
2022/10/28 10:48:24;;;;;;;16.58;4.20;;;20.20;99.90;;;;;;4968187;28;39089;-77
2022/10/28 10:50:51;;;;;;;16.42;4.65;;;20.20;99.90;;;;;;4949049;28;36086;-78
2022/10/28 10:53:21;;;;;;;23.27;5.82;;;20.20;99.90;;;;;;4951371;28;37856;-78
2022/10/28 10:55:50;;;;;;;12.52;3.83;;;20.10;99.90;;;;;;4950257;28;37649;-77
2022/10/28 10:58:22;;;;;;;16.90;4.45;;;20.10;99.90;;;;;;4966288;28;38461;-82
2022/10/28 11:00:51;;;;;;;23.15;4.60;;;20.10;99.90;;;;;;4959079;28;37048;-81
2022/10/28 11:03:23;;;;;;;13.85;4.55;;;20.00;99.90;;;;;;4966201;28;38912;-80
2022/10/28 11:05:58;;;;;;;17.40;5.38;;;20.10;99.90;;;;;;4957932;28;37557;-78
2022/10/28 11:08:31;;;;;;;12.05;4.65;;;20.00;99.90;;;;;;4960682;28;38732;-81
2022/10/28 11:11:29;;;;;;;;;;;20.00;99.90;;;;;;4967598;28;37137;-79
2022/10/28 11:14:23;;;;;;;17.75;4.57;;;20.00;99.90;;;;;;4949813;28;48618;-77
2022/10/28 11:16:52;;;;;;;15.30;4.65;;;20.00;99.90;;;;;;4958431;28;48569;-78
2022/10/28 11:19:37;;;;;;;13.52;4.10;;;20.00;99.90;;;;;;4964188;28;38932;-78
2022/10/28 11:22:32;;;;;;;15.43;4.30;;;20.10;99.90;;;;;;4972853;28;38059;-79
2022/10/28 11:25:19;;;;;;;18.13;4.75;;;20.10;99.90;;;;;;4962186;28;40235;-78
2022/10/28 11:28:08;;;;;;;16.05;4.25;;;20.10;99.90;;;;;;4955060;28;47166;-79
2022/10/28 11:31:11;;;;;;;13.63;5.22;;;20.20;99.90;;;;;;4955800;28;46986;-77
2022/10/28 11:33:49;;;;;;;15.48;4.43;;;20.20;99.90;;;;;;4957468;28;47101;-78
2022/10/28 11:36:30;;;;;;;9.98;4.00;;;20.20;99.90;;;;;;4963665;28;38184;-81
2022/10/28 11:39:11;;;;;;;14.00;3.83;;;20.30;99.90;;;;;;4940740;28;39755;-79
2022/10/28 11:41:58;;;;;;;19.80;4.95;;;20.20;99.90;;;;;;4953380;28;47127;-77
2022/10/28 11:44:43;;;;;;;9.98;3.95;;;20.20;99.90;;;;;;4957992;28;36232;-77
2022/10/28 11:47:15;;;;;;;12.05;4.35;;;20.20;99.90;;;;;;4965955;28;39810;-76
2022/10/28 11:50:04;;;;;;;16.73;4.85;;;20.20;99.90;;;;;;4963375;28;38052;-78
2022/10/28 11:52:40;;;;;;;16.10;4.15;;;20.30;99.90;;;;;;4976497;28;47142;-78
2022/10/28 11:55:12;;;;;;;15.68;4.50;;;20.40;99.90;;;;;;4967364;28;36443;-78
2022/10/28 11:57:41;;;;;;;14.23;4.38;;;20.50;99.90;;;;;;4966819;28;39449;-77
2022/10/28 12:00:31;;;;;;;15.10;3.80;;;20.60;99.90;;;;;;4970822;28;37785;-77
2022/10/28 12:03:19;;;;;;;15.38;4.18;;;20.90;99.90;;;;;;4960922;28;47316;-79
2022/10/28 12:06:09;;;;;;;16.73;4.05;;;21.20;99.90;;;;;;4952159;28;47282;-76
2022/10/28 12:09:02;;;;;;;15.88;4.13;;;21.10;99.90;;;;;;4954915;28;46092;-75
2022/10/28 12:12:02;;;;;;;19.27;4.40;;;21.00;99.90;;;;;;4966828;28;47164;-75
2022/10/28 12:14:34;;;;;;;15.95;4.07;;;21.10;99.90;;;;;;4927596;28;47041;-76
2022/10/28 12:17:21;;;;;;;13.50;4.53;;;21.10;99.90;;;;;;4963715;28;37071;-75
2022/10/28 12:19:59;;;;;;;16.38;3.97;;;21.10;99.90;;;;;;4940476;28;46999;-75
2022/10/28 12:22:56;;;;;;;16.13;4.70;;;21.10;99.90;;;;;;4963843;28;38707;-78
2022/10/28 12:25:29;;;;;;;15.57;4.63;;;21.20;99.90;;;;;;4943451;28;37709;-75
2022/10/28 12:28:13;;;;;;;19.63;4.35;;;21.10;99.90;;;;;;4963267;28;38267;-76
2022/10/28 12:30:41;;;;;;;19.27;4.60;;;21.00;99.90;;;;;;4964213;28;46932;-77
2022/10/28 12:33:23;;;;;;;13.93;4.63;;;20.90;99.90;;;;;;4958961;28;38660;-75
2022/10/28 12:36:08;;;;;;;17.15;4.95;;;20.90;99.90;;;;;;4961081;28;38484;-75
2022/10/28 12:38:55;;;;;;;21.55;4.50;;;20.90;99.90;;;;;;4969302;28;47272;-75
2022/10/28 12:41:25;;;;;;;17.95;4.55;;;20.90;99.90;;;;;;4965271;28;38168;-75
2022/10/28 12:44:08;;;;;;;13.55;4.55;;;20.90;99.90;;;;;;4954956;28;38868;-75
2022/10/28 12:47:19;;;;;;;15.05;4.35;;;21.00;99.90;;;;;;4947010;28;46986;-76
2022/10/28 12:50:06;;;;;;;17.20;4.97;;;20.90;99.90;;;;;;4903320;28;48340;-76
2022/10/28 12:52:48;;;;;;;17.42;5.55;;;21.00;99.90;;;;;;4941816;28;47077;-74
2022/10/28 12:55:23;;;;;;;12.48;3.92;;;21.10;99.90;;;;;;4963418;28;37630;-75
2022/10/28 12:57:57;;;;;;;17.67;4.65;;;21.10;99.90;;;;;;4957021;28;37035;-75
2022/10/28 13:00:28;;;;;;;17.40;4.18;;;21.10;99.90;;;;;;4968231;28;38207;-75